Hundvaag 1 weather for Jan 2007
Month no. 235
Obs.
Da.
Temp. Dew Point Precip. Wind
Speed
Wind gusts Cloud cover Press. Humidity Wind dir. Sunny OPT
01.01.2007 6,7   16,0 30,6   0 973,8 86,0 180,0   27,5 %
02.01.2007 4,9   10,0 8,0   4 997,5 82,0 337,5 1 55,0 %
03.01.2007 2,4   2,5 3,2   2 1013,8 86,0 225,0   60,0 %
04.01.2007 8,2   17,0 25,7   0 982,6 91,0 180,0   32,5 %
05.01.2007 5,4   4,0 1,6   1 1003,9 71,0 67,5   60,0 %
06.01.2007 7,5   9,5 19,3   3 1003,9 82,0 180,0 1 50,0 %
07.01.2007 6,6   4,1 25,7   0 999,2 87,0 202,5 1 40,0 %
08.01.2007 8,1   20,5 27,4   0 979,6 97,0 180,0   30,0 %
09.01.2007 7,9   11,2 30,6   5 978,6 89,0 202,5 1 47,5 %
10.01.2007 5,3   1,7 6,4   6 996,5 82,0 45,0 1 72,5 %
11.01.2007 2,0   4,5 38,6   0 992,1 76,0 90,0   27,5 %
12.01.2007 6,4   15,2 24,1   1 998,5 83,0 180,0   35,0 %
13.01.2007 5,2   11,0 9,7   1 1001,6 69,0 90,0   50,0 %
14.01.2007 6,2   19,0 37,0   1 991,4 75,0 247,5   22,5 %
15.01.2007 8,7   0,9 53,1   1 1003,6 82,0 67,5   40,0 %
16.01.2007 4,5   3,0 16,1   8 1003,6 73,0 135,0 1 65,0 %
17.01.2007 3,9   0,8 24,1   8 1001,6 75,0 45,0 1 62,5 %
18.01.2007 4,5   6,1 19,3   4 979,2 77,0 112,5 1 50,0 %
19.01.2007 2,0   1,7 4,8   9 990,1 82,0 225,0 1 75,0 %
20.01.2007 3,2   2,0 40,2   2 987,0 81,0 157,5   37,5 %
21.01.2007 1,4   12,2 3,2   7 984,0 83,0 315,0 1 62,5 %
22.01.2007 -3,1   2,3 6,4   10 1015,8 71,0 315,0 1 72,5 %
23.01.2007 -3,3   6,0 0,0   8 1017,2 87,0   1 65,0 %
24.01.2007 -1,3   0,2 14,5   4 1009,7 80,0 157,5 1 55,0 %
25.01.2007 -3,0   1,0 16,1   1 1026,3 72,0 90,0   42,5 %
26.01.2007 3,2   4,0 19,3   2 1004,6 81,0 292,5 1 47,5 %
27.01.2007 -0,7   1,3 16,1   7 1016,8 79,0 22,5 1 60,0 %
28.01.2007 6,6   5,4 9,7   3 1003,3 91,0 202,5 1 60,0 %
29.01.2007 3,0   4,5 14,5   4 1015,1 71,0 225,0 1 57,5 %
30.01.2007 6,6   2,4 8,0   1 1014,1 90,0 180,0   57,5 %
31.01.2007 7,5   7,5 38,6   1 995,5 91,0 247,5   35,0 %
Avrg/Sum 4,1   207,5 19,1   3,4 999,4 81,4 173,3 17 50,2 %